sensor_id;sensor_type;location;lat;lon;timestamp;P1;durP1;ratioP1;P2;durP2;ratioP2
48987;SDS011;34799;51.440;-2.534;2023-02-11T00:00:23;7.82;;;2.00;;
48987;SDS011;34799;51.440;-2.534;2023-02-11T00:02:50;10.23;;;2.15;;
48987;SDS011;34799;51.440;-2.534;2023-02-11T00:05:17;10.77;;;3.15;;
48987;SDS011;34799;51.440;-2.534;2023-02-11T00:07:44;7.35;;;1.75;;
48987;SDS011;34799;51.440;-2.534;2023-02-11T00:10:11;7.07;;;2.63;;
48987;SDS011;34799;51.440;-2.534;2023-02-11T00:12:38;8.70;;;2.08;;
48987;SDS011;34799;51.440;-2.534;2023-02-11T00:15:06;8.95;;;1.88;;
48987;SDS011;34799;51.440;-2.534;2023-02-11T00:17:34;9.98;;;2.28;;
48987;SDS011;34799;51.440;-2.534;2023-02-11T00:20:02;8.38;;;2.67;;
48987;SDS011;34799;51.440;-2.534;2023-02-11T00:22:30;8.68;;;2.28;;
48987;SDS011;34799;51.440;-2.534;2023-02-11T00:24:57;9.57;;;2.33;;
48987;SDS011;34799;51.440;-2.534;2023-02-11T00:27:24;8.00;;;2.17;;
48987;SDS011;34799;51.440;-2.534;2023-02-11T00:29:52;9.77;;;2.10;;
48987;SDS011;34799;51.440;-2.534;2023-02-11T00:32:20;12.77;;;3.40;;
48987;SDS011;34799;51.440;-2.534;2023-02-11T00:34:50;7.10;;;2.78;;
48987;SDS011;34799;51.440;-2.534;2023-02-11T00:37:20;8.77;;;3.35;;
48987;SDS011;34799;51.440;-2.534;2023-02-11T00:39:47;9.57;;;4.05;;
48987;SDS011;34799;51.440;-2.534;2023-02-11T00:42:15;7.43;;;3.00;;
48987;SDS011;34799;51.440;-2.534;2023-02-11T00:44:43;7.18;;;2.53;;
48987;SDS011;34799;51.440;-2.534;2023-02-11T00:47:15;7.25;;;2.63;;
48987;SDS011;34799;51.440;-2.534;2023-02-11T00:49:42;8.32;;;2.45;;
48987;SDS011;34799;51.440;-2.534;2023-02-11T00:52:09;8.88;;;2.72;;
48987;SDS011;34799;51.440;-2.534;2023-02-11T00:54:38;14.32;;;3.22;;
48987;SDS011;34799;51.440;-2.534;2023-02-11T00:57:06;11.13;;;2.35;;
48987;SDS011;34799;51.440;-2.534;2023-02-11T00:59:33;10.32;;;2.10;;
48987;SDS011;34799;51.440;-2.534;2023-02-11T01:02:00;9.55;;;2.35;;
48987;SDS011;34799;51.440;-2.534;2023-02-11T01:04:27;6.63;;;1.48;;
48987;SDS011;34799;51.440;-2.534;2023-02-11T01:06:54;10.15;;;1.70;;
48987;SDS011;34799;51.440;-2.534;2023-02-11T01:09:22;10.18;;;1.50;;
48987;SDS011;34799;51.440;-2.534;2023-02-11T01:11:50;9.27;;;1.60;;
48987;SDS011;34799;51.440;-2.534;2023-02-11T01:14:17;8.27;;;1.35;;
48987;SDS011;34799;51.440;-2.534;2023-02-11T01:16:44;5.18;;;1.10;;
48987;SDS011;34799;51.440;-2.534;2023-02-11T01:19:11;6.25;;;1.60;;
48987;SDS011;34799;51.440;-2.534;2023-02-11T01:21:39;5.35;;;1.30;;
48987;SDS011;34799;51.440;-2.534;2023-02-11T01:24:07;8.48;;;1.23;;
48987;SDS011;34799;51.440;-2.534;2023-02-11T01:26:34;8.80;;;1.70;;
48987;SDS011;34799;51.440;-2.534;2023-02-11T01:29:02;13.73;;;1.80;;
48987;SDS011;34799;51.440;-2.534;2023-02-11T01:31:29;8.70;;;1.35;;
48987;SDS011;34799;51.440;-2.534;2023-02-11T01:33:59;4.75;;;1.65;;
48987;SDS011;34799;51.440;-2.534;2023-02-11T01:36:28;8.95;;;2.33;;
48987;SDS011;34799;51.440;-2.534;2023-02-11T01:38:55;12.50;;;2.40;;
48987;SDS011;34799;51.440;-2.534;2023-02-11T01:41:22;7.15;;;2.05;;
48987;SDS011;34799;51.440;-2.534;2023-02-11T01:43:49;7.60;;;1.80;;
48987;SDS011;34799;51.440;-2.534;2023-02-11T01:49:15;10.73;;;2.17;;
48987;SDS011;34799;51.440;-2.534;2023-02-11T01:51:58;13.25;;;2.47;;
48987;SDS011;34799;51.440;-2.534;2023-02-11T01:54:42;8.13;;;2.30;;
48987;SDS011;34799;51.440;-2.534;2023-02-11T01:57:32;9.52;;;1.70;;
48987;SDS011;34799;51.440;-2.534;2023-02-11T02:00:05;9.27;;;2.25;;
48987;SDS011;34799;51.440;-2.534;2023-02-11T02:02:56;8.40;;;1.60;;
48987;SDS011;34799;51.440;-2.534;2023-02-11T02:05:34;10.63;;;2.45;;
48987;SDS011;34799;51.440;-2.534;2023-02-11T02:10:45;11.45;;;2.25;;
48987;SDS011;34799;51.440;-2.534;2023-02-11T02:13:15;9.23;;;2.00;;
48987;SDS011;34799;51.440;-2.534;2023-02-11T02:16:01;14.23;;;2.00;;
48987;SDS011;34799;51.440;-2.534;2023-02-11T02:18:43;11.80;;;3.28;;
48987;SDS011;34799;51.440;-2.534;2023-02-11T02:37:48;12.60;;;3.60;;
48987;SDS011;34799;51.440;-2.534;2023-02-11T02:40:55;10.30;;;2.55;;
48987;SDS011;34799;51.440;-2.534;2023-02-11T02:43:25;9.43;;;2.22;;
48987;SDS011;34799;51.440;-2.534;2023-02-11T02:45:54;8.65;;;1.90;;
48987;SDS011;34799;51.440;-2.534;2023-02-11T02:48:34;9.93;;;2.10;;
48987;SDS011;34799;51.440;-2.534;2023-02-11T02:51:14;9.32;;;2.10;;
48987;SDS011;34799;51.440;-2.534;2023-02-11T03:02:04;7.30;;;1.70;;
48987;SDS011;34799;51.440;-2.534;2023-02-11T03:04:51;10.93;;;1.20;;
48987;SDS011;34799;51.440;-2.534;2023-02-11T03:07:26;4.05;;;0.70;;
48987;SDS011;34799;51.440;-2.534;2023-02-11T03:10:02;8.02;;;0.85;;
48987;SDS011;34799;51.440;-2.534;2023-02-11T03:12:38;7.88;;;0.85;;
48987;SDS011;34799;51.440;-2.534;2023-02-11T03:15:08;4.70;;;0.68;;
48987;SDS011;34799;51.440;-2.534;2023-02-11T03:17:38;4.25;;;0.73;;
48987;SDS011;34799;51.440;-2.534;2023-02-11T03:20:09;5.50;;;0.90;;
48987;SDS011;34799;51.440;-2.534;2023-02-11T03:22:40;6.05;;;1.20;;
48987;SDS011;34799;51.440;-2.534;2023-02-11T03:25:14;8.40;;;1.40;;
48987;SDS011;34799;51.440;-2.534;2023-02-11T03:27:46;5.90;;;0.77;;
48987;SDS011;34799;51.440;-2.534;2023-02-11T03:30:26;7.93;;;1.55;;
48987;SDS011;34799;51.440;-2.534;2023-02-11T03:33:24;7.72;;;1.00;;
48987;SDS011;34799;51.440;-2.534;2023-02-11T03:35:57;6.05;;;0.95;;
48987;SDS011;34799;51.440;-2.534;2023-02-11T03:38:32;2.67;;;1.02;;
48987;SDS011;34799;51.440;-2.534;2023-02-11T03:41:04;7.43;;;1.13;;
48987;SDS011;34799;51.440;-2.534;2023-02-11T03:43:34;7.28;;;1.50;;
48987;SDS011;34799;51.440;-2.534;2023-02-11T03:46:07;7.03;;;1.35;;
48987;SDS011;34799;51.440;-2.534;2023-02-11T03:48:38;5.35;;;1.20;;
48987;SDS011;34799;51.440;-2.534;2023-02-11T03:51:10;10.18;;;1.80;;
48987;SDS011;34799;51.440;-2.534;2023-02-11T03:53:40;6.82;;;1.83;;
48987;SDS011;34799;51.440;-2.534;2023-02-11T03:56:12;10.32;;;1.75;;
48987;SDS011;34799;51.440;-2.534;2023-02-11T03:58:44;12.00;;;2.17;;
48987;SDS011;34799;51.440;-2.534;2023-02-11T04:01:13;6.55;;;1.58;;
48987;SDS011;34799;51.440;-2.534;2023-02-11T04:03:40;7.60;;;1.40;;
48987;SDS011;34799;51.440;-2.534;2023-02-11T04:06:07;4.97;;;1.60;;
48987;SDS011;34799;51.440;-2.534;2023-02-11T04:08:34;7.65;;;1.58;;
48987;SDS011;34799;51.440;-2.534;2023-02-11T04:11:01;7.03;;;1.83;;
48987;SDS011;34799;51.440;-2.534;2023-02-11T04:13:30;6.45;;;1.80;;
48987;SDS011;34799;51.440;-2.534;2023-02-11T04:15:57;9.27;;;2.28;;
48987;SDS011;34799;51.440;-2.534;2023-02-11T04:18:24;9.95;;;2.45;;
48987;SDS011;34799;51.440;-2.534;2023-02-11T04:20:51;11.70;;;3.33;;
48987;SDS011;34799;51.440;-2.534;2023-02-11T04:23:18;9.18;;;2.95;;
48987;SDS011;34799;51.440;-2.534;2023-02-11T04:25:45;15.27;;;2.63;;
48987;SDS011;34799;51.440;-2.534;2023-02-11T04:28:12;8.30;;;2.58;;
48987;SDS011;34799;51.440;-2.534;2023-02-11T04:30:40;13.52;;;2.78;;
48987;SDS011;34799;51.440;-2.534;2023-02-11T04:33:07;6.82;;;2.38;;
48987;SDS011;34799;51.440;-2.534;2023-02-11T04:35:34;11.15;;;2.63;;
48987;SDS011;34799;51.440;-2.534;2023-02-11T04:38:01;11.13;;;3.08;;
48987;SDS011;34799;51.440;-2.534;2023-02-11T04:40:28;11.40;;;3.13;;
48987;SDS011;34799;51.440;-2.534;2023-02-11T04:42:55;11.40;;;2.80;;
48987;SDS011;34799;51.440;-2.534;2023-02-11T04:45:22;9.88;;;3.28;;
48987;SDS011;34799;51.440;-2.534;2023-02-11T04:47:50;13.23;;;3.35;;
48987;SDS011;34799;51.440;-2.534;2023-02-11T04:50:17;11.32;;;3.28;;
48987;SDS011;34799;51.440;-2.534;2023-02-11T04:52:44;17.83;;;4.88;;
48987;SDS011;34799;51.440;-2.534;2023-02-11T04:55:12;15.88;;;3.70;;
48987;SDS011;34799;51.440;-2.534;2023-02-11T04:57:39;12.57;;;3.40;;
48987;SDS011;34799;51.440;-2.534;2023-02-11T05:00:06;11.25;;;3.83;;
48987;SDS011;34799;51.440;-2.534;2023-02-11T05:02:35;14.77;;;3.67;;
48987;SDS011;34799;51.440;-2.534;2023-02-11T05:05:02;12.43;;;3.70;;
48987;SDS011;34799;51.440;-2.534;2023-02-11T05:07:30;14.25;;;3.78;;
48987;SDS011;34799;51.440;-2.534;2023-02-11T05:09:57;14.48;;;3.28;;
48987;SDS011;34799;51.440;-2.534;2023-02-11T05:12:24;13.75;;;4.30;;
48987;SDS011;34799;51.440;-2.534;2023-02-11T05:14:52;11.23;;;4.00;;
48987;SDS011;34799;51.440;-2.534;2023-02-11T05:17:20;12.98;;;3.97;;
48987;SDS011;34799;51.440;-2.534;2023-02-11T05:19:47;14.30;;;3.90;;
48987;SDS011;34799;51.440;-2.534;2023-02-11T05:22:14;11.73;;;3.75;;
48987;SDS011;34799;51.440;-2.534;2023-02-11T05:24:41;12.30;;;4.00;;
48987;SDS011;34799;51.440;-2.534;2023-02-11T05:27:08;14.40;;;3.53;;
48987;SDS011;34799;51.440;-2.534;2023-02-11T05:29:35;12.30;;;3.83;;
48987;SDS011;34799;51.440;-2.534;2023-02-11T05:32:02;15.10;;;4.22;;
48987;SDS011;34799;51.440;-2.534;2023-02-11T05:34:30;9.48;;;3.60;;
48987;SDS011;34799;51.440;-2.534;2023-02-11T05:36:58;12.65;;;4.10;;
48987;SDS011;34799;51.440;-2.534;2023-02-11T05:39:25;8.88;;;3.47;;
48987;SDS011;34799;51.440;-2.534;2023-02-11T05:41:52;12.77;;;4.15;;
48987;SDS011;34799;51.440;-2.534;2023-02-11T05:44:19;10.07;;;3.90;;
48987;SDS011;34799;51.440;-2.534;2023-02-11T05:46:46;9.15;;;3.78;;
48987;SDS011;34799;51.440;-2.534;2023-02-11T05:49:16;11.25;;;4.20;;
48987;SDS011;34799;51.440;-2.534;2023-02-11T05:51:43;12.10;;;4.60;;
48987;SDS011;34799;51.440;-2.534;2023-02-11T05:54:10;15.32;;;3.58;;
48987;SDS011;34799;51.440;-2.534;2023-02-11T05:56:38;12.38;;;3.30;;
48987;SDS011;34799;51.440;-2.534;2023-02-11T05:59:05;7.20;;;2.78;;
48987;SDS011;34799;51.440;-2.534;2023-02-11T06:01:32;13.77;;;3.65;;
48987;SDS011;34799;51.440;-2.534;2023-02-11T06:04:00;9.80;;;3.38;;
48987;SDS011;34799;51.440;-2.534;2023-02-11T06:06:27;9.15;;;3.15;;
48987;SDS011;34799;51.440;-2.534;2023-02-11T06:08:54;10.10;;;2.97;;
48987;SDS011;34799;51.440;-2.534;2023-02-11T06:11:21;11.68;;;2.65;;
48987;SDS011;34799;51.440;-2.534;2023-02-11T06:13:49;16.77;;;3.15;;
48987;SDS011;34799;51.440;-2.534;2023-02-11T06:16:16;10.05;;;2.90;;
48987;SDS011;34799;51.440;-2.534;2023-02-11T06:18:44;7.03;;;2.38;;
48987;SDS011;34799;51.440;-2.534;2023-02-11T06:21:11;14.65;;;2.97;;
48987;SDS011;34799;51.440;-2.534;2023-02-11T06:23:38;8.15;;;2.38;;
48987;SDS011;34799;51.440;-2.534;2023-02-11T06:26:06;8.45;;;2.42;;
48987;SDS011;34799;51.440;-2.534;2023-02-11T06:28:34;10.63;;;2.40;;
48987;SDS011;34799;51.440;-2.534;2023-02-11T06:31:04;8.80;;;2.80;;
48987;SDS011;34799;51.440;-2.534;2023-02-11T06:33:33;8.52;;;2.20;;
48987;SDS011;34799;51.440;-2.534;2023-02-11T06:36:00;10.77;;;2.50;;
48987;SDS011;34799;51.440;-2.534;2023-02-11T06:38:29;12.68;;;3.30;;
48987;SDS011;34799;51.440;-2.534;2023-02-11T06:40:57;13.02;;;3.25;;
48987;SDS011;34799;51.440;-2.534;2023-02-11T06:43:24;14.13;;;3.08;;
48987;SDS011;34799;51.440;-2.534;2023-02-11T06:45:51;11.63;;;3.10;;
48987;SDS011;34799;51.440;-2.534;2023-02-11T06:48:19;10.43;;;2.95;;
48987;SDS011;34799;51.440;-2.534;2023-02-11T06:50:48;13.00;;;3.65;;
48987;SDS011;34799;51.440;-2.534;2023-02-11T06:53:15;13.68;;;3.75;;
48987;SDS011;34799;51.440;-2.534;2023-02-11T06:55:42;8.82;;;2.92;;
48987;SDS011;34799;51.440;-2.534;2023-02-11T06:58:09;14.15;;;3.40;;
48987;SDS011;34799;51.440;-2.534;2023-02-11T07:00:36;9.40;;;2.70;;
48987;SDS011;34799;51.440;-2.534;2023-02-11T07:03:03;12.55;;;3.38;;
48987;SDS011;34799;51.440;-2.534;2023-02-11T07:05:32;13.35;;;3.17;;
48987;SDS011;34799;51.440;-2.534;2023-02-11T07:08:00;14.48;;;4.13;;
48987;SDS011;34799;51.440;-2.534;2023-02-11T07:10:27;13.60;;;3.28;;
48987;SDS011;34799;51.440;-2.534;2023-02-11T07:12:54;11.27;;;3.20;;
48987;SDS011;34799;51.440;-2.534;2023-02-11T07:15:24;10.73;;;3.90;;
48987;SDS011;34799;51.440;-2.534;2023-02-11T07:17:51;14.60;;;3.38;;
48987;SDS011;34799;51.440;-2.534;2023-02-11T07:20:19;13.40;;;3.00;;
48987;SDS011;34799;51.440;-2.534;2023-02-11T07:22:46;13.40;;;3.10;;
48987;SDS011;34799;51.440;-2.534;2023-02-11T07:25:13;11.20;;;2.80;;
48987;SDS011;34799;51.440;-2.534;2023-02-11T07:27:40;8.57;;;2.78;;
48987;SDS011;34799;51.440;-2.534;2023-02-11T07:30:07;8.52;;;2.78;;
48987;SDS011;34799;51.440;-2.534;2023-02-11T07:32:36;10.15;;;2.83;;
48987;SDS011;34799;51.440;-2.534;2023-02-11T07:35:03;9.15;;;2.97;;
48987;SDS011;34799;51.440;-2.534;2023-02-11T07:37:32;5.93;;;2.35;;
48987;SDS011;34799;51.440;-2.534;2023-02-11T07:40:00;12.35;;;4.25;;
48987;SDS011;34799;51.440;-2.534;2023-02-11T07:42:28;9.73;;;3.13;;
48987;SDS011;34799;51.440;-2.534;2023-02-11T07:44:56;10.73;;;3.63;;
48987;SDS011;34799;51.440;-2.534;2023-02-11T07:47:23;13.82;;;3.03;;
48987;SDS011;34799;51.440;-2.534;2023-02-11T07:49:50;6.88;;;2.95;;
48987;SDS011;34799;51.440;-2.534;2023-02-11T07:52:18;10.95;;;2.67;;
48987;SDS011;34799;51.440;-2.534;2023-02-11T07:54:47;7.15;;;2.72;;
48987;SDS011;34799;51.440;-2.534;2023-02-11T07:57:18;10.40;;;3.03;;
48987;SDS011;34799;51.440;-2.534;2023-02-11T07:59:45;11.57;;;3.33;;
48987;SDS011;34799;51.440;-2.534;2023-02-11T08:02:12;13.02;;;3.17;;
48987;SDS011;34799;51.440;-2.534;2023-02-11T08:04:39;11.50;;;3.65;;
48987;SDS011;34799;51.440;-2.534;2023-02-11T08:07:08;10.95;;;3.47;;
48987;SDS011;34799;51.440;-2.534;2023-02-11T08:09:35;13.90;;;4.07;;
48987;SDS011;34799;51.440;-2.534;2023-02-11T08:12:02;12.98;;;3.40;;
48987;SDS011;34799;51.440;-2.534;2023-02-11T08:14:29;11.85;;;3.90;;
48987;SDS011;34799;51.440;-2.534;2023-02-11T08:16:59;13.50;;;3.25;;
48987;SDS011;34799;51.440;-2.534;2023-02-11T08:19:26;9.65;;;3.78;;
48987;SDS011;34799;51.440;-2.534;2023-02-11T08:21:54;12.50;;;3.85;;
48987;SDS011;34799;51.440;-2.534;2023-02-11T08:24:22;13.10;;;3.75;;
48987;SDS011;34799;51.440;-2.534;2023-02-11T08:26:49;10.00;;;3.00;;
48987;SDS011;34799;51.440;-2.534;2023-02-11T08:29:18;12.25;;;4.15;;
48987;SDS011;34799;51.440;-2.534;2023-02-11T08:31:45;11.25;;;3.50;;
48987;SDS011;34799;51.440;-2.534;2023-02-11T08:34:13;9.80;;;3.50;;
48987;SDS011;34799;51.440;-2.534;2023-02-11T08:36:44;9.02;;;3.20;;
48987;SDS011;34799;51.440;-2.534;2023-02-11T08:39:16;9.13;;;3.30;;
48987;SDS011;34799;51.440;-2.534;2023-02-11T08:41:47;8.00;;;3.42;;
48987;SDS011;34799;51.440;-2.534;2023-02-11T08:44:17;10.07;;;3.55;;
48987;SDS011;34799;51.440;-2.534;2023-02-11T08:46:45;9.40;;;2.97;;
48987;SDS011;34799;51.440;-2.534;2023-02-11T08:49:13;8.25;;;2.88;;
48987;SDS011;34799;51.440;-2.534;2023-02-11T08:51:41;10.23;;;3.20;;
48987;SDS011;34799;51.440;-2.534;2023-02-11T08:54:09;8.07;;;3.08;;
48987;SDS011;34799;51.440;-2.534;2023-02-11T08:56:37;7.82;;;3.38;;
48987;SDS011;34799;51.440;-2.534;2023-02-11T08:59:07;8.88;;;3.08;;
48987;SDS011;34799;51.440;-2.534;2023-02-11T09:01:36;5.53;;;3.05;;
48987;SDS011;34799;51.440;-2.534;2023-02-11T09:04:03;9.50;;;3.22;;
48987;SDS011;34799;51.440;-2.534;2023-02-11T09:06:30;8.05;;;3.00;;
48987;SDS011;34799;51.440;-2.534;2023-02-11T09:08:58;7.00;;;3.17;;
48987;SDS011;34799;51.440;-2.534;2023-02-11T09:11:29;8.20;;;3.00;;
48987;SDS011;34799;51.440;-2.534;2023-02-11T09:14:01;9.68;;;2.92;;
48987;SDS011;34799;51.440;-2.534;2023-02-11T09:16:30;5.57;;;2.55;;
48987;SDS011;34799;51.440;-2.534;2023-02-11T09:19:04;10.25;;;3.10;;
48987;SDS011;34799;51.440;-2.534;2023-02-11T09:21:31;7.50;;;3.85;;
48987;SDS011;34799;51.440;-2.534;2023-02-11T09:23:58;13.85;;;3.15;;
48987;SDS011;34799;51.440;-2.534;2023-02-11T09:26:29;8.73;;;3.65;;
48987;SDS011;34799;51.440;-2.534;2023-02-11T09:28:57;8.30;;;3.05;;
48987;SDS011;34799;51.440;-2.534;2023-02-11T09:31:26;6.35;;;2.75;;
48987;SDS011;34799;51.440;-2.534;2023-02-11T09:33:56;8.27;;;3.00;;
48987;SDS011;34799;51.440;-2.534;2023-02-11T09:36:26;7.65;;;2.50;;
48987;SDS011;34799;51.440;-2.534;2023-02-11T09:38:56;4.97;;;2.30;;
48987;SDS011;34799;51.440;-2.534;2023-02-11T09:44:15;5.95;;;2.38;;
48987;SDS011;34799;51.440;-2.534;2023-02-11T09:46:59;5.85;;;1.80;;
48987;SDS011;34799;51.440;-2.534;2023-02-11T09:49:39;6.82;;;1.88;;
48987;SDS011;34799;51.440;-2.534;2023-02-11T09:52:20;5.53;;;2.05;;
48987;SDS011;34799;51.440;-2.534;2023-02-11T09:54:56;5.47;;;1.60;;
48987;SDS011;34799;51.440;-2.534;2023-02-11T09:57:27;6.47;;;1.80;;
48987;SDS011;34799;51.440;-2.534;2023-02-11T10:00:01;5.72;;;1.90;;
48987;SDS011;34799;51.440;-2.534;2023-02-11T10:02:51;7.30;;;1.83;;
48987;SDS011;34799;51.440;-2.534;2023-02-11T10:08:11;6.93;;;2.97;;
48987;SDS011;34799;51.440;-2.534;2023-02-11T10:18:33;6.65;;;1.60;;
48987;SDS011;34799;51.440;-2.534;2023-02-11T10:23:40;7.50;;;1.95;;
48987;SDS011;34799;51.440;-2.534;2023-02-11T10:26:13;5.22;;;1.95;;
48987;SDS011;34799;51.440;-2.534;2023-02-11T10:28:43;7.07;;;1.48;;
48987;SDS011;34799;51.440;-2.534;2023-02-11T10:31:23;6.15;;;1.35;;
48987;SDS011;34799;51.440;-2.534;2023-02-11T10:36:39;2.90;;;0.70;;
48987;SDS011;34799;51.440;-2.534;2023-02-11T10:39:12;4.97;;;1.10;;
48987;SDS011;34799;51.440;-2.534;2023-02-11T10:41:45;4.07;;;0.82;;
48987;SDS011;34799;51.440;-2.534;2023-02-11T10:47:00;4.50;;;0.82;;
48987;SDS011;34799;51.440;-2.534;2023-02-11T10:49:39;4.28;;;1.02;;
48987;SDS011;34799;51.440;-2.534;2023-02-11T10:52:26;5.05;;;0.80;;
48987;SDS011;34799;51.440;-2.534;2023-02-11T10:55:13;4.70;;;1.23;;
48987;SDS011;34799;51.440;-2.534;2023-02-11T11:02:55;2.15;;;0.75;;
48987;SDS011;34799;51.440;-2.534;2023-02-11T11:05:33;5.15;;;1.48;;
48987;SDS011;34799;51.440;-2.534;2023-02-11T11:08:03;3.10;;;0.90;;
48987;SDS011;34799;51.440;-2.534;2023-02-11T11:13:22;7.13;;;1.27;;
48987;SDS011;34799;51.440;-2.534;2023-02-11T11:16:07;4.85;;;1.17;;
48987;SDS011;34799;51.440;-2.534;2023-02-11T11:18:34;5.70;;;1.00;;
48987;SDS011;34799;51.440;-2.534;2023-02-11T11:21:02;4.38;;;1.10;;
48987;SDS011;34799;51.440;-2.534;2023-02-11T11:23:36;3.25;;;0.70;;
48987;SDS011;34799;51.440;-2.534;2023-02-11T11:26:06;4.05;;;1.00;;
48987;SDS011;34799;51.440;-2.534;2023-02-11T11:28:36;2.28;;;0.60;;
48987;SDS011;34799;51.440;-2.534;2023-02-11T11:31:14;3.50;;;1.08;;
48987;SDS011;34799;51.440;-2.534;2023-02-11T11:33:45;3.75;;;0.95;;
48987;SDS011;34799;51.440;-2.534;2023-02-11T11:36:15;4.63;;;1.00;;
48987;SDS011;34799;51.440;-2.534;2023-02-11T11:38:53;6.40;;;1.90;;
48987;SDS011;34799;51.440;-2.534;2023-02-11T11:41:30;7.70;;;1.17;;
48987;SDS011;34799;51.440;-2.534;2023-02-11T11:44:00;7.18;;;1.70;;
48987;SDS011;34799;51.440;-2.534;2023-02-11T11:46:49;6.25;;;2.17;;
48987;SDS011;34799;51.440;-2.534;2023-02-11T11:49:35;6.13;;;1.83;;
48987;SDS011;34799;51.440;-2.534;2023-02-11T11:52:21;3.28;;;1.67;;
48987;SDS011;34799;51.440;-2.534;2023-02-11T11:55:33;6.13;;;2.00;;
48987;SDS011;34799;51.440;-2.534;2023-02-11T11:58:18;5.78;;;1.80;;
48987;SDS011;34799;51.440;-2.534;2023-02-11T12:09:11;8.25;;;3.40;;
48987;SDS011;34799;51.440;-2.534;2023-02-11T12:14:44;11.40;;;3.72;;
48987;SDS011;34799;51.440;-2.534;2023-02-11T12:31:34;9.48;;;2.88;;
48987;SDS011;34799;51.440;-2.534;2023-02-11T12:34:14;17.73;;;5.07;;
48987;SDS011;34799;51.440;-2.534;2023-02-11T12:37:01;10.48;;;3.90;;
48987;SDS011;34799;51.440;-2.534;2023-02-11T12:45:40;11.82;;;4.20;;
48987;SDS011;34799;51.440;-2.534;2023-02-11T12:51:29;17.25;;;5.40;;
48987;SDS011;34799;51.440;-2.534;2023-02-11T12:57:29;15.65;;;5.32;;
48987;SDS011;34799;51.440;-2.534;2023-02-11T13:02:26;10.27;;;4.72;;
48987;SDS011;34799;51.440;-2.534;2023-02-11T13:07:48;15.23;;;5.97;;
48987;SDS011;34799;51.440;-2.534;2023-02-11T13:12:54;10.75;;;5.32;;
48987;SDS011;34799;51.440;-2.534;2023-02-11T13:15:42;14.73;;;5.07;;
48987;SDS011;34799;51.440;-2.534;2023-02-11T13:18:51;11.32;;;5.43;;
48987;SDS011;34799;51.440;-2.534;2023-02-11T13:26:46;14.65;;;4.95;;
48987;SDS011;34799;51.440;-2.534;2023-02-11T13:32:08;11.57;;;4.13;;
48987;SDS011;34799;51.440;-2.534;2023-02-11T13:37:28;10.55;;;4.53;;
48987;SDS011;34799;51.440;-2.534;2023-02-11T13:40:06;11.85;;;4.47;;
48987;SDS011;34799;51.440;-2.534;2023-02-11T13:43:17;8.82;;;5.40;;
48987;SDS011;34799;51.440;-2.534;2023-02-11T13:45:42;13.70;;;5.97;;
48987;SDS011;34799;51.440;-2.534;2023-02-11T13:48:21;10.35;;;4.53;;
48987;SDS011;34799;51.440;-2.534;2023-02-11T13:50:55;11.25;;;4.05;;
48987;SDS011;34799;51.440;-2.534;2023-02-11T13:56:40;7.80;;;3.05;;
48987;SDS011;34799;51.440;-2.534;2023-02-11T14:08:10;3.47;;;1.25;;
48987;SDS011;34799;51.440;-2.534;2023-02-11T14:16:19;2.38;;;1.20;;
48987;SDS011;34799;51.440;-2.534;2023-02-11T14:19:02;1.27;;;0.60;;
48987;SDS011;34799;51.440;-2.534;2023-02-11T14:21:35;3.95;;;0.98;;
48987;SDS011;34799;51.440;-2.534;2023-02-11T14:26:44;3.35;;;1.20;;
48987;SDS011;34799;51.440;-2.534;2023-02-11T14:29:18;2.55;;;1.02;;
48987;SDS011;34799;51.440;-2.534;2023-02-11T14:32:12;3.30;;;1.48;;
48987;SDS011;34799;51.440;-2.534;2023-02-11T14:40:26;7.10;;;2.03;;
48987;SDS011;34799;51.440;-2.534;2023-02-11T14:43:15;1.83;;;0.50;;
48987;SDS011;34799;51.440;-2.534;2023-02-11T14:45:48;2.70;;;0.80;;
48987;SDS011;34799;51.440;-2.534;2023-02-11T14:48:18;2.72;;;0.50;;
48987;SDS011;34799;51.440;-2.534;2023-02-11T14:50:49;4.60;;;1.10;;
48987;SDS011;34799;51.440;-2.534;2023-02-11T14:53:20;1.63;;;0.40;;
48987;SDS011;34799;51.440;-2.534;2023-02-11T14:55:50;2.55;;;0.40;;
48987;SDS011;34799;51.440;-2.534;2023-02-11T14:58:23;3.83;;;0.50;;
48987;SDS011;34799;51.440;-2.534;2023-02-11T15:01:04;0.63;;;0.20;;
48987;SDS011;34799;51.440;-2.534;2023-02-11T15:03:48;1.13;;;0.30;;
48987;SDS011;34799;51.440;-2.534;2023-02-11T15:06:22;2.78;;;0.90;;
48987;SDS011;34799;51.440;-2.534;2023-02-11T15:08:53;3.78;;;0.60;;
48987;SDS011;34799;51.440;-2.534;2023-02-11T15:11:39;3.75;;;1.10;;
48987;SDS011;34799;51.440;-2.534;2023-02-11T15:16:48;3.33;;;0.60;;
48987;SDS011;34799;51.440;-2.534;2023-02-11T15:19:27;4.97;;;1.23;;
48987;SDS011;34799;51.440;-2.534;2023-02-11T15:21:58;4.30;;;0.80;;
48987;SDS011;34799;51.440;-2.534;2023-02-11T15:24:33;1.75;;;0.88;;
48987;SDS011;34799;51.440;-2.534;2023-02-11T15:27:03;3.60;;;0.83;;
48987;SDS011;34799;51.440;-2.534;2023-02-11T15:29:35;2.60;;;0.85;;
48987;SDS011;34799;51.440;-2.534;2023-02-11T15:32:05;3.67;;;1.23;;
48987;SDS011;34799;51.440;-2.534;2023-02-11T15:34:39;2.15;;;0.95;;
48987;SDS011;34799;51.440;-2.534;2023-02-11T15:37:09;3.20;;;1.30;;
48987;SDS011;34799;51.440;-2.534;2023-02-11T15:39:41;4.97;;;1.70;;
48987;SDS011;34799;51.440;-2.534;2023-02-11T15:45:09;3.55;;;1.13;;
48987;SDS011;34799;51.440;-2.534;2023-02-11T15:47:50;5.22;;;1.30;;
48987;SDS011;34799;51.440;-2.534;2023-02-11T15:50:21;3.10;;;0.60;;
48987;SDS011;34799;51.440;-2.534;2023-02-11T15:52:50;6.38;;;0.68;;
48987;SDS011;34799;51.440;-2.534;2023-02-11T15:55:19;3.47;;;0.77;;
48987;SDS011;34799;51.440;-2.534;2023-02-11T15:57:52;1.88;;;0.60;;
48987;SDS011;34799;51.440;-2.534;2023-02-11T16:00:23;2.15;;;0.75;;
48987;SDS011;34799;51.440;-2.534;2023-02-11T16:02:57;5.53;;;1.23;;
48987;SDS011;34799;51.440;-2.534;2023-02-11T16:05:26;2.25;;;0.90;;
48987;SDS011;34799;51.440;-2.534;2023-02-11T16:08:19;4.43;;;1.40;;
48987;SDS011;34799;51.440;-2.534;2023-02-11T16:10:54;5.70;;;1.25;;
48987;SDS011;34799;51.440;-2.534;2023-02-11T16:13:29;4.75;;;1.42;;
48987;SDS011;34799;51.440;-2.534;2023-02-11T16:16:00;6.25;;;2.10;;
48987;SDS011;34799;51.440;-2.534;2023-02-11T16:18:31;4.05;;;1.23;;
48987;SDS011;34799;51.440;-2.534;2023-02-11T16:21:33;2.08;;;1.10;;
48987;SDS011;34799;51.440;-2.534;2023-02-11T16:24:05;4.47;;;1.58;;
48987;SDS011;34799;51.440;-2.534;2023-02-11T16:26:35;9.48;;;3.40;;
48987;SDS011;34799;51.440;-2.534;2023-02-11T16:29:10;10.18;;;4.45;;
48987;SDS011;34799;51.440;-2.534;2023-02-11T16:31:41;9.40;;;2.53;;
48987;SDS011;34799;51.440;-2.534;2023-02-11T16:34:20;4.30;;;2.08;;
48987;SDS011;34799;51.440;-2.534;2023-02-11T16:36:50;6.70;;;2.90;;
48987;SDS011;34799;51.440;-2.534;2023-02-11T16:39:19;8.25;;;3.10;;
48987;SDS011;34799;51.440;-2.534;2023-02-11T16:41:49;9.43;;;3.45;;
48987;SDS011;34799;51.440;-2.534;2023-02-11T16:44:17;7.30;;;3.33;;
48987;SDS011;34799;51.440;-2.534;2023-02-11T16:46:45;6.20;;;2.72;;
48987;SDS011;34799;51.440;-2.534;2023-02-11T16:49:22;10.73;;;3.67;;
48987;SDS011;34799;51.440;-2.534;2023-02-11T16:51:54;8.52;;;3.75;;
48987;SDS011;34799;51.440;-2.534;2023-02-11T16:54:29;10.18;;;4.05;;
48987;SDS011;34799;51.440;-2.534;2023-02-11T16:56:56;8.02;;;3.72;;
48987;SDS011;34799;51.440;-2.534;2023-02-11T16:59:24;9.13;;;4.03;;
48987;SDS011;34799;51.440;-2.534;2023-02-11T17:01:51;8.77;;;4.32;;
48987;SDS011;34799;51.440;-2.534;2023-02-11T17:04:27;7.53;;;3.58;;
48987;SDS011;34799;51.440;-2.534;2023-02-11T17:06:58;9.35;;;3.22;;
48987;SDS011;34799;51.440;-2.534;2023-02-11T17:09:25;8.13;;;4.05;;
48987;SDS011;34799;51.440;-2.534;2023-02-11T17:11:56;9.25;;;4.65;;
48987;SDS011;34799;51.440;-2.534;2023-02-11T17:14:23;11.18;;;5.40;;
48987;SDS011;34799;51.440;-2.534;2023-02-11T17:16:51;10.18;;;5.53;;
48987;SDS011;34799;51.440;-2.534;2023-02-11T17:19:19;13.55;;;6.18;;
48987;SDS011;34799;51.440;-2.534;2023-02-11T17:21:48;9.95;;;4.35;;
48987;SDS011;34799;51.440;-2.534;2023-02-11T17:24:18;11.60;;;4.75;;